• Join FlightAware (Why Join?)
  • Login
  • US Flag 
06:28AM EDT


 

Airport Tracker/Info


-or-


 

Live Flight TrackerFlight Track Log ✈ SKW5592 ✈ 27-Apr-2012 ✈ KOKC - KDEN

Flight Track Log - Related Links

Times and Time Zones

All times are in EDT time to prevent confusion due to time zone crossing. See the SKW5592 flight status page for this flight to view local times or setup timezone preferences in your user account.

Time Position Orientation Groundspeed Altitude Reporting Facility
EDT Latitude Longitude Course Direction KTS MPH feet Rate Location/Type
12:10PM 35.3662 -97.6000 217° Southwest  Level FlightAware Approximate
12:11PM 35.3500 -97.7226 112° Southeast  Level FlightAware Approximate
12:12PM 35.3225 -97.6400 280° West 199 229 4,300  Level Fort Worth Center
12:13PM 35.3308 -97.7011 280° West 223 257 6,300 2,100 Climbing Fort Worth Center
12:15PM 35.3514 -97.8411 271° West 241 277 9,900 1,920 Climbing Fort Worth Center
12:16PM 35.3531 -97.9250 268° West 246 283 11,800 1,800 Climbing Fort Worth Center
12:17PM 35.3506 -98.0117 268° West 257 296 13,600 1,680 Climbing Fort Worth Center
12:18PM 35.3481 -98.1136 269° West 265 305 15,200 1,500 Climbing Fort Worth Center
12:19PM 35.3472 -98.2103 270° West 279 321 16,600 1,380 Climbing Fort Worth Center
12:20PM 35.3467 -98.3094 268° West 290 334 18,000 1,440 Climbing Fort Worth Center
12:21PM 35.3439 -98.4111 269° West 290 334 19,500 1,200 Climbing Fort Worth Center
12:22PM 35.3431 -98.5106 268° West 290 334 20,500 960 Climbing Fort Worth Center
12:23PM 35.3400 -98.6197 268° West 302 348 21,500 960 Climbing Fort Worth Center
12:24PM 35.3367 -98.7267 269° West 312 359 22,500 960 Climbing Fort Worth Center
12:25PM 35.3356 -98.8386 269° West 323 372 23,500 960 Climbing Fort Worth Center
12:26PM 35.3342 -98.9481 268° West 328 377 24,500 900 Climbing Fort Worth Center
12:27PM 35.3311 -99.0369 267° West 328 377 25,300 900 Climbing Fort Worth Center
12:28PM 35.3253 -99.1539 270° West 328 377 26,300 900 Climbing Fort Worth Center
12:29PM 35.3258 -99.2608 268° West 328 377 27,200 780 Climbing Fort Worth Center
12:31PM 35.3183 -99.5025 268° West 329 379 29,000 780 Climbing Albuquerque Center
12:32PM 35.3150 -99.6125 268° West 329 379 29,800 600 Climbing Albuquerque Center
12:33PM 35.3117 -99.7222 269° West 329 379 30,300 540 Climbing Albuquerque Center
12:34PM 35.3103 -99.8344 266° West 335 386 30,900 540 Climbing Albuquerque Center
12:35PM 35.3047 -99.9442 268° West 335 386 31,400 480 Climbing Albuquerque Center
12:36PM 35.3011 -100.0542 268° West 335 386 31,900 300 Climbing Albuquerque Center
12:37PM 35.2975 -100.1689 269° West 335 386 32,000  Climbing Albuquerque Center
12:38PM 35.2961 -100.2861 267° West 335 386 32,000  Level Albuquerque Center
12:39PM 35.2906 -100.4036 266° West 346 398 32,000  Level Albuquerque Center
12:40PM 35.2833 -100.5289 268° West 358 412 32,000  Level Albuquerque Center
12:41PM 35.2800 -100.6539 268° West 369 425 32,000  Level Albuquerque Center
12:42PM 35.2764 -100.7789 267° West 369 425 32,000  Level Albuquerque Center
12:43PM 35.2708 -100.9067 267° West 374 430 32,000  Level Albuquerque Center
12:44PM 35.2653 -101.0369 267° West 381 438 32,000  Level Albuquerque Center
12:45PM 35.2594 -101.1669 267° West 386 444 32,000  Level Albuquerque Center
12:46PM 35.2536 -101.2947 268° West 386 444 32,000  Level Albuquerque Center
12:47PM 35.2503 -101.4375 263° West 392 451 32,000  Level Albuquerque Center
12:48PM 35.2375 -101.5603 283° West 387 445 32,000  Level Albuquerque Center
12:49PM 35.2625 -101.6883 311° West 381 438 32,000  Level Albuquerque Center
12:50PM 35.3317 -101.7853 324° Northwest 371 427 32,000  Level Albuquerque Center
12:51PM 35.4186 -101.8633 322° Northwest 384 442 32,000  Level Albuquerque Center
12:52PM 35.4931 -101.9347 323° Northwest 390 449 32,000  Level Albuquerque Center
12:53PM 35.5778 -102.0133 323° Northwest 381 438 32,000  Level Albuquerque Center
12:54PM 35.6606 -102.0897 324° Northwest 386 444 32,000  Level Albuquerque Center
12:55PM 35.7497 -102.1708 323° Northwest 386 444 32,000  Level Albuquerque Center
12:56PM 35.8367 -102.2522 323° Northwest 386 444 32,000  Level Albuquerque Center
12:57PM 35.9236 -102.3339 323° Northwest 386 444 32,000  Level Albuquerque Center
12:58PM 36.0125 -102.4153 323° Northwest 386 444 32,000  Level Albuquerque Center
12:59PM 36.0994 -102.4975 323° Northwest 391 450 32,000  Level Albuquerque Center
01:00PM 36.1861 -102.5794 322° Northwest 391 450 32,000  Level Albuquerque Center
01:01PM 36.2728 -102.6644 324° Northwest 391 450 32,000  Level Albuquerque Center
01:02PM 36.3617 -102.7442 322° Northwest 391 450 32,000  Level Albuquerque Center
01:03PM 36.4481 -102.8269 324° Northwest 386 444 32,000  Level Albuquerque Center
01:04PM 36.5453 -102.9144 323° Northwest 386 444 32,000  Level Albuquerque Center
01:05PM 36.6231 -102.9875 323° Northwest 386 444 32,000  Level Albuquerque Center
01:06PM 36.7117 -103.0708 321° Northwest 386 444 32,000  Level Albuquerque Center
01:07PM 36.8047 -103.1642 324° Northwest 386 444 32,000  Level Albuquerque Center
01:08PM 36.8931 -103.2450 322° Northwest 386 444 32,000  Level Albuquerque Center
01:10PM 37.0872 -103.4350 323° Northwest 400 460 32,000  Level Denver Center
01:11PM 37.1853 -103.5272 332° Northwest 400 460 32,000  Level Denver Center
01:12PM 37.2831 -103.5939 356° North 400 460 32,000  Level Denver Center
01:13PM 37.3936 -103.6025 359° North 413 475 32,000 -300 Level Denver Center
01:14PM 37.5333 -103.6047 358° North 448 516 31,400 -840 Descending Denver Center
01:15PM 37.6606 -103.6103 360° North 458 527 30,400 -720 Descending Denver Center
01:16PM 37.7775 -103.6108 359° North 463 533 30,000 -180 Descending Denver Center
01:17PM 37.9192 -103.6131 359° North 463 533 30,100  Climbing Denver Center
01:18PM 38.0464 -103.6158 359° North 458 527 30,000 -60 Descending Denver Center
01:19PM 38.1717 -103.6186 349° North 453 521 30,000  Level Denver Center
01:20PM 38.2786 -103.6461 339° North 441 507 30,000  Level Denver Center
01:22PM 38.5192 -103.7614 340° North 438 504 30,000  Level Denver Center
01:23PM 38.6225 -103.8106 339° North 438 504 30,000 -300 Level Denver Center
01:24PM 38.7364 -103.8675 339° North 438 504 29,500 -1,800 Descending Denver Center
01:25PM 38.8567 -103.9269 341° North 446 513 26,500 -3,000 Descending Denver Center
01:26PM 38.9661 -103.9764 340° North 435 501 23,600 -2,880 Descending Denver Center
01:27PM 39.0714 -104.0261 338° Northwest 416 479 20,800 -2,940 Descending Denver Center
01:28PM 39.1706 -104.0789 336° Northwest 394 453 17,800 -2,460 Descending Denver Center
01:29PM 39.2656 -104.1344 321° Northwest 382 440 15,900 -1,800 Descending Denver Center
01:30PM 39.3272 -104.1997 310° West 318 366 14,200 -1,440 Descending Denver Center
01:31PM 39.3853 -104.2889 300° West 288 331 13,100 -600 Descending Denver Center
01:32PM 39.4244 -104.3764 302° West 283 326 13,100 -60 Level Denver Center
01:33PM 39.4656 -104.4614 301° West 277 319 13,000 -480 Descending Denver Center
01:34PM 39.5025 -104.5411 294° West 269 310 12,200 -960 Descending Denver Center
01:35PM 39.5167 -104.5833 330° Northwest 238 274 11,600 -1,440 Descending Denver TRACON
01:36PM 39.5833 -104.6333 339° North 284 327 10,100 -1,320 Descending Denver TRACON
01:37PM 39.6500 -104.6667 360° North 248 285 9,000 -1,500 Descending Denver TRACON
01:38PM 39.7167 -104.6667 360° North 259 298 7,200 -1,800 Descending Denver TRACON